Time,TemperatureF,DewpointF,PressureIn,WindDirection,WindDirectionDegrees,WindSpeedMPH,WindSpeedGustMPH,Humidity,HourlyPrecipIn,Conditions,Clouds,dailyrainin,SoftwareType,DateUTC
2015-04-26 00:02:00,66.4,65.8,28.56,WSW,248,3.8,5.8,98,0.00,RA,,0.00,WeatherDisplay:10.37,2015-04-26 04:02:00,
2015-04-26 00:07:00,66.4,65.8,28.56,WSW,248,4.7,5.8,98,0.00,RA,,0.00,WeatherDisplay:10.37,2015-04-26 04:07:00,
2015-04-26 00:12:00,66.4,65.8,28.56,West,270,3.8,5.8,98,0.00,CLR,,0.00,WeatherDisplay:10.37,2015-04-26 04:12:00,
2015-04-26 00:17:00,66.6,65.7,28.56,SSW,202,4.9,6.9,97,0.00,CLR,,0.00,WeatherDisplay:10.37,2015-04-26 04:17:00,
2015-04-26 00:22:00,66.6,65.7,28.56,WSW,248,6.2,8.1,97,0.00,CLR,,0.00,WeatherDisplay:10.37,2015-04-26 04:22:00,
2015-04-26 00:28:00,66.7,65.9,28.56,WSW,248,6.9,11.5,97,0.00,CLR,,0.00,WeatherDisplay:10.37,2015-04-26 04:28:00,
2015-04-26 00:33:00,66.7,65.6,28.56,WSW,248,6.7,8.7,96,0.00,CLR,,0.00,WeatherDisplay:10.37,2015-04-26 04:33:00,
2015-04-26 00:38:00,66.9,65.7,28.56,WSW,248,7.4,10.4,96,0.00,CLR,,0.00,WeatherDisplay:10.37,2015-04-26 04:38:00,
2015-04-26 00:43:00,66.9,65.7,28.56,WSW,248,6.4,8.1,96,0.00,CLR,,0.00,WeatherDisplay:10.37,2015-04-26 04:43:00,
2015-04-26 00:48:00,67.1,65.9,28.56,WNW,292,7.4,11.5,96,0.00,CLR,,0.00,WeatherDisplay:10.37,2015-04-26 04:48:00,
2015-04-26 00:53:00,67.1,65.9,28.56,WSW,248,6.7,9.2,96,0.00,CLR,,0.00,WeatherDisplay:10.37,2015-04-26 04:53:00,
2015-04-26 00:58:00,67.3,65.8,28.56,WSW,248,5.9,6.9,95,0.00,CLR,,0.00,WeatherDisplay:10.37,2015-04-26 04:58:00,
2015-04-26 01:03:00,67.3,65.8,28.56,WSW,248,6.7,8.1,95,0.00,CLR,,0.00,WeatherDisplay:10.37,2015-04-26 05:03:00,
2015-04-26 01:08:00,67.5,66.0,28.56,West,270,9.8,11.5,95,0.00,CLR,,0.00,WeatherDisplay:10.37,2015-04-26 05:08:00,
2015-04-26 01:13:00,67.5,66.0,28.56,West,270,6.0,9.2,95,0.00,CLR,,0.00,WeatherDisplay:10.37,2015-04-26 05:13:00,
2015-04-26 01:18:00,67.5,66.0,28.56,WSW,248,7.8,10.7,95,0.00,CLR,,0.00,WeatherDisplay:10.37,2015-04-26 05:18:00,
2015-04-26 01:23:00,67.6,66.2,28.56,West,270,4.5,8.1,95,0.00,CLR,,0.00,WeatherDisplay:10.37,2015-04-26 05:23:00,
2015-04-26 01:28:00,67.6,66.2,28.56,WSW,248,7.8,9.2,95,0.00,CLR,,0.00,WeatherDisplay:10.37,2015-04-26 05:28:00,
2015-04-26 01:33:00,67.6,65.9,28.56,WSW,248,6.4,10.5,94,0.00,CLR,,0.00,WeatherDisplay:10.37,2015-04-26 05:33:00,
2015-04-26 01:38:00,67.6,65.9,28.56,West,270,4.5,5.8,94,0.00,CLR,,0.00,WeatherDisplay:10.37,2015-04-26 05:38:00,
2015-04-26 01:43:00,67.6,65.9,28.56,WSW,248,5.6,6.9,94,0.00,CLR,,0.00,WeatherDisplay:10.37,2015-04-26 05:43:00,
2015-04-26 01:48:00,67.6,66.2,28.56,WSW,248,4.5,5.8,95,0.00,CLR,,0.00,WeatherDisplay:10.37,2015-04-26 05:48:00,
2015-04-26 01:53:00,67.6,66.2,28.56,WSW,248,5.9,8.1,95,0.00,CLR,,0.00,WeatherDisplay:10.37,2015-04-26 05:53:00,
2015-04-26 01:58:00,67.6,66.2,28.53,WSW,248,4.7,6.0,95,0.00,CLR,,0.00,WeatherDisplay:10.37,2015-04-26 05:58:00,
2015-04-26 02:03:00,67.6,66.2,28.53,West,270,4.3,5.8,95,0.00,CLR,,0.00,WeatherDisplay:10.37,2015-04-26 06:03:00,
2015-04-26 02:08:00,67.6,66.2,28.53,WSW,248,5.4,10.4,95,0.00,CLR,,0.00,WeatherDisplay:10.37,2015-04-26 06:08:00,
2015-04-26 02:13:00,67.6,66.2,28.53,West,270,6.2,7.6,95,0.00,CLR,,0.00,WeatherDisplay:10.37,2015-04-26 06:13:00,
2015-04-26 02:18:00,67.6,66.2,28.53,WSW,248,6.7,8.1,95,0.00,CLR,,0.00,WeatherDisplay:10.37,2015-04-26 06:18:00,
2015-04-26 02:23:00,67.6,66.2,28.53,WSW,248,7.4,10.4,95,0.00,CLR,,0.00,WeatherDisplay:10.37,2015-04-26 06:23:00,
2015-04-26 02:28:00,67.6,66.2,28.53,WSW,248,5.4,6.9,95,0.00,CLR,,0.00,WeatherDisplay:10.37,2015-04-26 06:28:00,
2015-04-26 02:33:00,67.6,66.2,28.53,WNW,292,4.9,10.4,95,0.00,CLR,,0.00,WeatherDisplay:10.37,2015-04-26 06:33:00,
2015-04-26 02:38:00,67.6,66.2,28.53,WNW,292,6.2,12.8,95,0.00,CLR,,0.00,WeatherDisplay:10.37,2015-04-26 06:38:00,
2015-04-26 02:43:00,67.8,66.3,28.53,West,270,7.1,8.1,95,0.00,CLR,,0.00,WeatherDisplay:10.37,2015-04-26 06:43:00,
2015-04-26 02:48:00,67.8,66.3,28.53,SW,225,8.7,9.2,95,0.00,CLR,,0.00,WeatherDisplay:10.37,2015-04-26 06:48:00,
2015-04-26 02:53:00,67.6,66.2,28.53,West,270,4.7,5.8,95,0.00,CLR,,0.00,WeatherDisplay:10.37,2015-04-26 06:53:00,
2015-04-26 02:58:00,67.8,66.3,28.50,WNW,292,6.4,9.2,95,0.00,CLR,,0.00,WeatherDisplay:10.37,2015-04-26 06:58:00,
2015-04-26 03:03:00,67.6,66.2,28.50,WSW,248,4.7,8.1,95,0.00,CLR,,0.00,WeatherDisplay:10.37,2015-04-26 07:03:00,
2015-04-26 03:08:00,67.6,66.2,28.50,NW,315,6.2,10.4,95,0.00,CLR,,0.00,WeatherDisplay:10.37,2015-04-26 07:08:00,
2015-04-26 03:13:00,67.6,66.2,28.50,WNW,292,6.4,8.1,95,0.00,CLR,,0.00,WeatherDisplay:10.37,2015-04-26 07:13:00,
2015-04-26 03:18:00,67.6,66.2,28.50,West,270,9.7,10.4,95,0.00,CLR,,0.00,WeatherDisplay:10.37,2015-04-26 07:18:00,
2015-04-26 03:23:00,67.5,66.0,28.50,WNW,292,6.0,8.1,95,0.00,CLR,,0.00,WeatherDisplay:10.37,2015-04-26 07:23:00,
2015-04-26 03:28:00,67.5,65.7,28.50,West,270,7.4,8.1,94,0.00,CLR,,0.00,WeatherDisplay:10.37,2015-04-26 07:28:00,
2015-04-26 03:33:00,67.5,65.7,28.50,WSW,248,7.1,9.2,94,0.00,CLR,,0.00,WeatherDisplay:10.37,2015-04-26 07:33:00,
2015-04-26 03:38:00,67.3,65.5,28.50,West,270,5.6,5.8,94,0.00,CLR,,0.00,WeatherDisplay:10.37,2015-04-26 07:38:00,
2015-04-26 03:43:00,67.1,65.0,28.50,WNW,292,4.7,8.1,93,0.00,CLR,,0.00,WeatherDisplay:10.37,2015-04-26 07:43:00,
2015-04-26 03:48:00,67.1,64.7,28.50,WSW,248,9.2,12.7,92,0.00,CLR,,0.00,WeatherDisplay:10.37,2015-04-26 07:48:00,
2015-04-26 03:53:00,67.1,64.7,28.50,West,270,5.9,7.4,92,0.00,CLR,,0.00,WeatherDisplay:10.37,2015-04-26 07:53:00,
2015-04-26 03:58:00,67.1,64.1,28.50,West,270,5.9,8.1,90,0.00,CLR,,0.00,WeatherDisplay:10.37,2015-04-26 07:58:00,
2015-04-26 04:03:00,67.1,64.1,28.50,West,270,4.9,6.9,90,0.00,CLR,,0.00,WeatherDisplay:10.37,2015-04-26 08:03:00,
2015-04-26 04:08:00,67.1,63.4,28.50,WSW,248,6.0,6.9,88,0.00,CLR,,0.00,WeatherDisplay:10.37,2015-04-26 08:08:00,
2015-04-26 04:13:00,67.1,63.1,28.53,WSW,248,6.0,8.1,87,0.00,CLR,,0.00,WeatherDisplay:10.37,2015-04-26 08:13:00,
2015-04-26 04:18:00,66.9,62.6,28.53,West,270,5.6,9.2,86,0.00,CLR,,0.00,WeatherDisplay:10.37,2015-04-26 08:18:00,
2015-04-26 04:23:00,66.7,62.4,28.53,West,270,3.6,5.8,86,0.00,CLR,,0.00,WeatherDisplay:10.37,2015-04-26 08:23:00,
2015-04-26 04:29:00,66.6,62.2,28.53,WSW,248,5.6,8.5,86,0.00,CLR,,0.00,WeatherDisplay:10.37,2015-04-26 08:29:00,
2015-04-26 04:34:00,66.4,62.1,28.53,WNW,292,3.3,6.4,86,0.00,CLR,,0.00,WeatherDisplay:10.37,2015-04-26 08:34:00,
2015-04-26 04:39:00,66.2,61.9,28.53,WSW,248,3.8,6.0,86,0.00,CLR,,0.00,WeatherDisplay:10.37,2015-04-26 08:39:00,
2015-04-26 04:44:00,66.0,62.0,28.53,WSW,248,3.3,4.6,87,0.00,CLR,,0.00,WeatherDisplay:10.37,2015-04-26 08:44:00,
2015-04-26 04:49:00,65.8,62.2,28.53,WNW,292,4.3,5.8,88,0.00,CLR,,0.00,WeatherDisplay:10.37,2015-04-26 08:49:00,
2015-04-26 04:54:00,65.8,62.5,28.53,WNW,292,4.7,5.8,89,0.00,CLR,,0.00,WeatherDisplay:10.37,2015-04-26 08:54:00,
2015-04-26 04:59:00,65.7,62.3,28.53,WNW,292,2.9,4.6,89,0.00,CLR,,0.00,WeatherDisplay:10.37,2015-04-26 08:59:00,
2015-04-26 05:04:00,65.5,62.5,28.53,WSW,248,4.9,6.9,90,0.00,CLR,,0.00,WeatherDisplay:10.37,2015-04-26 09:04:00,
2015-04-26 05:09:00,65.3,62.6,28.53,WSW,248,5.4,5.8,91,0.00,CLR,,0.00,WeatherDisplay:10.37,2015-04-26 09:09:00,
2015-04-26 05:14:00,65.1,62.4,28.53,WSW,248,4.7,5.8,91,0.00,CLR,,0.00,WeatherDisplay:10.37,2015-04-26 09:14:00,
2015-04-26 05:19:00,64.9,62.6,28.53,WSW,248,4.3,6.2,92,0.00,CLR,,0.00,WeatherDisplay:10.37,2015-04-26 09:19:00,
2015-04-26 05:24:00,64.9,62.6,28.53,West,270,3.3,4.6,92,0.00,CLR,,0.00,WeatherDisplay:10.37,2015-04-26 09:24:00,
2015-04-26 05:29:00,64.8,62.7,28.53,NW,315,3.3,3.6,93,0.00,CLR,,0.00,WeatherDisplay:10.37,2015-04-26 09:29:00,
2015-04-26 05:34:00,64.8,63.0,28.53,NW,315,3.1,4.6,94,0.00,CLR,,0.00,WeatherDisplay:10.37,2015-04-26 09:34:00,
2015-04-26 05:39:00,64.6,62.8,28.53,NW,315,2.0,2.3,94,0.00,CLR,,0.00,WeatherDisplay:10.37,2015-04-26 09:39:00,
2015-04-26 05:44:00,64.8,63.3,28.56,WNW,292,3.3,4.6,95,0.00,CLR,,0.00,WeatherDisplay:10.37,2015-04-26 09:44:00,
2015-04-26 05:49:00,64.8,63.3,28.56,WSW,248,5.6,5.8,95,0.00,CLR,,0.00,WeatherDisplay:10.37,2015-04-26 09:49:00,
2015-04-26 05:54:00,64.8,63.3,28.56,WSW,248,3.8,5.9,95,0.00,CLR,,0.00,WeatherDisplay:10.37,2015-04-26 09:54:00,
2015-04-26 05:59:00,64.4,62.9,28.56,WNW,292,3.1,4.6,95,0.00,CLR,,0.00,WeatherDisplay:10.37,2015-04-26 09:59:00,
2015-04-26 06:04:00,64.0,62.6,28.56,WNW,292,1.6,2.3,95,0.00,CLR,,0.00,WeatherDisplay:10.37,2015-04-26 10:04:00,
2015-04-26 06:09:00,63.9,62.4,28.56,West,270,2.4,3.5,95,0.00,CLR,,0.00,WeatherDisplay:10.37,2015-04-26 10:09:00,